Time;durP1;ratioP1;P1;durP2;ratioP2;P2;SDS_P1;SDS_P2;PMS_P1;PMS_P2;Temp;Humidity;BMP_temperature;BMP_pressure;BME280_temperature;BME280_humidity;BME280_pressure;Samples;Min_cycle;Max_cycle;Signal;HPM_P1;HPM_P2
2021/12/20 00:08:16;;;;;;;0.13;0.00;;;4.40;66.50;;;;;;20804977;28;20045;-50
2021/12/20 00:18:19;;;;;;;0.00;0.00;;;4.10;67.80;;;;;;20803610;28;20049;-53
2021/12/20 00:28:22;;;;;;;0.10;0.00;;;3.80;70.00;;;;;;20803345;28;20063;-50
2021/12/20 00:48:46;;;;;;;0.00;0.00;;;3.70;65.80;;;;;;20801948;28;20045;-50
2021/12/20 00:58:49;;;;;;;0.00;0.00;;;3.80;64.30;;;;;;20668442;28;20042;-51
2021/12/20 01:08:52;;;;;;;0.00;0.00;;;4.50;67.80;;;;;;20655258;28;20038;-50
2021/12/20 01:18:57;;;;;;;0.00;0.00;;;4.40;60.50;;;;;;20653356;28;20042;-54
2021/12/20 01:29:00;;;;;;;0.00;0.00;;;4.40;60.50;;;;;;20652342;28;20069;-50
2021/12/20 01:39:04;;;;;;;0.00;0.00;;;4.30;64.60;;;;;;20711870;28;20042;-49
2021/12/20 01:49:10;;;;;;;0.13;0.00;;;4.60;62.90;;;;;;20799678;28;20034;-51
2021/12/20 01:59:13;;;;;;;0.00;0.00;;;4.40;67.80;;;;;;20797960;28;20060;-52
2021/12/20 02:09:21;;;;;;;0.00;0.00;;;3.80;69.50;;;;;;20797566;28;20034;-49
2021/12/20 02:19:26;;;;;;;0.00;0.00;;;3.40;68.00;;;;;;20797226;28;20033;-52
2021/12/20 02:29:43;;;;;;;0.00;0.00;;;3.50;69.10;;;;;;20797588;28;20029;-50
2021/12/20 02:39:47;;;;;;;0.08;0.00;;;3.30;71.40;;;;;;20807805;28;20103;-49
2021/12/20 02:49:49;;;;;;;0.00;0.00;;;3.30;69.80;;;;;;20810996;28;20720;-50
2021/12/20 02:59:52;;;;;;;0.00;0.00;;;3.20;71.40;;;;;;20668129;28;20042;-55
2021/12/20 03:10:02;;;;;;;0.25;0.00;;;3.20;72.20;;;;;;20664323;28;20511;-49
2021/12/20 03:20:07;;;;;;;0.00;0.00;;;3.20;71.20;;;;;;20662023;28;20034;-50
2021/12/20 03:30:13;;;;;;;0.20;0.00;;;3.00;72.00;;;;;;20661267;28;20141;-50
2021/12/20 03:40:18;;;;;;;0.03;0.00;;;2.80;70.80;;;;;;20723761;28;20049;-49
2021/12/20 03:50:21;;;;;;;0.10;0.00;;;2.80;73.70;;;;;;20805634;28;20037;-53
2021/12/20 04:00:24;;;;;;;0.10;0.00;;;2.60;74.10;;;;;;20788646;28;20095;-49
2021/12/20 04:10:28;;;;;;;0.00;0.00;;;2.80;73.80;;;;;;20730178;28;20096;-50
2021/12/20 04:20:31;;;;;;;0.00;0.00;;;2.70;72.90;;;;;;20713488;28;20049;-49
2021/12/20 04:30:34;;;;;;;0.00;0.00;;;2.90;72.30;;;;;;20728970;28;20092;-50
2021/12/20 04:40:37;;;;;;;0.00;0.00;;;3.10;72.20;;;;;;20711588;28;20490;-51
2021/12/20 04:50:40;;;;;;;0.00;0.00;;;3.10;72.40;;;;;;20717451;28;20184;-49
2021/12/20 05:00:44;;;;;;;0.00;0.00;;;3.10;70.60;;;;;;20719646;28;20061;-53
2021/12/20 05:10:47;;;;;;;0.00;0.00;;;3.30;70.30;;;;;;20720995;28;20099;-51
2021/12/20 05:20:49;;;;;;;0.00;0.00;;;3.30;69.80;;;;;;20718537;28;20090;-49
2021/12/20 05:30:53;;;;;;;0.00;0.00;;;3.30;69.40;;;;;;20718241;28;20029;-50
2021/12/20 05:40:56;;;;;;;0.00;0.00;;;3.40;71.10;;;;;;20762534;28;20457;-49
2021/12/20 05:50:59;;;;;;;0.20;0.00;;;3.20;72.70;;;;;;20782293;28;20041;-52
2021/12/20 06:01:01;;;;;;;0.00;0.00;;;3.10;71.00;;;;;;20798229;28;20445;-51
2021/12/20 06:11:04;;;;;;;0.05;0.00;;;3.20;69.90;;;;;;20803726;28;20029;-50
2021/12/20 06:21:06;;;;;;;0.00;0.00;;;3.30;68.00;;;;;;20813628;28;20034;-49
2021/12/20 06:31:34;;;;;;;0.00;0.00;;;3.30;69.70;;;;;;20578617;28;20066;-52
2021/12/20 06:41:37;;;;;;;0.00;0.00;;;3.20;69.20;;;;;;20593717;28;20105;-49
2021/12/20 06:51:43;;;;;;;0.00;0.00;;;3.20;69.90;;;;;;20590623;28;20070;-50
2021/12/20 07:01:45;;;;;;;0.00;0.00;;;3.20;65.00;;;;;;20559916;28;20066;-50
2021/12/20 07:11:48;;;;;;;0.85;0.00;;;4.20;61.80;;;;;;20574931;28;20038;-49
2021/12/20 07:21:50;;;;;;;0.00;0.00;;;3.90;67.50;;;;;;20556794;28;20574;-50
2021/12/20 07:31:53;;;;;;;0.00;0.00;;;3.40;68.40;;;;;;20557731;28;20038;-49
2021/12/20 07:41:56;;;;;;;0.00;0.00;;;4.30;58.40;;;;;;20540483;28;20090;-50
2021/12/20 07:52:01;;;;;;;0.73;0.00;;;5.10;59.90;;;;;;20571951;28;20071;-48
2021/12/20 08:02:03;;;;;;;0.00;0.00;;;5.20;62.10;;;;;;20555889;28;20495;-48
2021/12/20 08:12:07;;;;;;;0.10;0.00;;;5.80;59.10;;;;;;20570544;28;20082;-48
2021/12/20 08:22:09;;;;;;;0.10;0.00;;;6.60;60.10;;;;;;20553479;28;20425;-48
2021/12/20 08:32:12;;;;;;;0.00;0.00;;;6.90;61.60;;;;;;20569116;28;20570;-49
2021/12/20 08:42:14;;;;;;;0.15;0.00;;;7.20;53.00;;;;;;20487909;29;20075;-48
2021/12/20 08:52:18;;;;;;;0.00;0.00;;;8.20;56.20;;;;;;20408396;29;20043;-53
2021/12/20 09:02:20;;;;;;;0.00;0.00;;;9.00;55.20;;;;;;20392077;29;20052;-48
2021/12/20 09:12:23;;;;;;;0.00;0.00;;;9.90;55.40;;;;;;20444046;28;20046;-49
2021/12/20 09:22:28;;;;;;;0.20;0.00;;;10.20;52.10;;;;;;20619726;28;20120;-51
2021/12/20 09:32:31;;;;;;;0.00;0.00;;;10.50;51.60;;;;;;20719480;28;20046;-50
2021/12/20 09:42:35;;;;;;;0.00;0.00;;;10.80;49.80;;;;;;20734578;28;20045;-50
2021/12/20 09:52:41;;;;;;;0.00;0.00;;;11.30;47.10;;;;;;20734994;28;20080;-50
2021/12/20 10:02:46;;;;;;;0.00;0.00;;;11.80;48.00;;;;;;20750857;28;20030;-49
2021/12/20 10:12:49;;;;;;;0.00;0.00;;;11.90;44.50;;;;;;20758272;28;20083;-51
2021/12/20 10:22:53;;;;;;;0.00;0.00;;;12.20;42.90;;;;;;20814181;28;20095;-50
2021/12/20 10:32:57;;;;;;;0.30;0.00;;;12.40;43.00;;;;;;20813352;28;20037;-49
2021/12/20 10:43:05;;;;;;;0.00;0.00;;;12.60;42.10;;;;;;20812367;28;20041;-50
2021/12/20 10:53:17;;;;;;;0.00;0.00;;;13.00;41.90;;;;;;20812082;28;20471;-49
2021/12/20 11:03:25;;;;;;;0.10;0.05;;;13.20;43.60;;;;;;20811265;28;20037;-51
2021/12/20 11:13:40;;;;;;;0.63;0.20;;;13.40;49.20;;;;;;20810252;28;20056;-48
2021/12/20 11:23:42;;;;;;;0.35;0.10;;;13.80;52.60;;;;;;20809883;28;20094;-51
2021/12/20 11:33:45;;;;;;;0.85;0.30;;;13.50;48.90;;;;;;20809574;28;20042;-50
2021/12/20 11:43:48;;;;;;;1.05;0.60;;;13.30;50.70;;;;;;20808018;28;20053;-50
2021/12/20 11:53:51;;;;;;;1.35;0.38;;;13.10;52.20;;;;;;20807346;28;20490;-53
2021/12/20 12:03:58;;;;;;;1.08;0.30;;;13.10;50.70;;;;;;20807829;28;20091;-53
2021/12/20 12:14:02;;;;;;;1.98;0.95;;;12.90;50.00;;;;;;20805045;28;20041;-51
2021/12/20 12:24:07;;;;;;;2.92;1.55;;;12.70;55.00;;;;;;20805078;28;20045;-50
2021/12/20 12:34:13;;;;;;;4.70;1.85;;;12.50;55.10;;;;;;20804332;28;20434;-50
2021/12/20 12:44:27;;;;;;;6.82;3.50;;;12.20;55.20;;;;;;20802978;28;20041;-52
2021/12/20 12:54:34;;;;;;;6.38;3.85;;;11.70;60.40;;;;;;20802530;28;20103;-50
2021/12/20 13:04:54;;;;;;;4.75;3.30;;;10.80;62.00;;;;;;20802833;28;20084;-49
2021/12/20 13:15:14;;;;;;;6.67;3.83;;;9.70;62.80;;;;;;20805775;28;20448;-54
2021/12/20 13:25:34;;;;;;;7.65;4.50;;;8.50;65.10;;;;;;20807278;28;20114;-50
2021/12/20 13:35:38;;;;;;;7.80;4.15;;;7.80;68.80;;;;;;20801475;28;20037;-49
2021/12/20 13:45:41;;;;;;;10.60;4.85;;;7.20;69.50;;;;;;20800360;28;20095;-50
2021/12/20 13:55:53;;;;;;;9.55;5.28;;;6.70;72.20;;;;;;20800206;28;20386;-50
2021/12/20 14:05:56;;;;;;;10.43;5.75;;;6.10;73.20;;;;;;20783540;28;20041;-51
2021/12/20 14:16:01;;;;;;;11.80;5.72;;;5.60;76.40;;;;;;20799100;28;20037;-53
2021/12/20 14:26:09;;;;;;;9.65;5.10;;;5.10;77.90;;;;;;20800171;28;20406;-51
2021/12/20 14:36:14;;;;;;;8.10;4.72;;;4.80;79.40;;;;;;20810511;28;20049;-52
2021/12/20 14:46:38;;;;;;;10.20;5.13;;;4.50;80.00;;;;;;20813652;28;20115;-50
2021/12/20 14:57:10;;;;;;;11.18;6.05;;;4.20;81.60;;;;;;20811612;28;20045;-50
2021/12/20 15:07:13;;;;;;;10.02;5.70;;;3.70;84.70;;;;;;20811451;28;20033;-49
2021/12/20 15:17:16;;;;;;;11.13;4.90;;;2.80;89.40;;;;;;20810273;28;20663;-51
2021/12/20 15:27:18;;;;;;;9.40;5.35;;;2.10;91.10;;;;;;20809953;28;20029;-49
2021/12/20 15:37:21;;;;;;;10.48;5.35;;;1.30;92.70;;;;;;20808978;28;20049;-52
2021/12/20 15:47:23;;;;;;;10.88;5.60;;;0.70;94.80;;;;;;20662828;28;20399;-52
2021/12/20 15:57:32;;;;;;;10.70;5.70;;;0.50;96.90;;;;;;20660372;28;20100;-49
2021/12/20 16:07:35;;;;;;;6.97;3.83;;;0.40;97.40;;;;;;20660307;28;20039;-51
2021/12/20 16:17:38;;;;;;;7.45;4.07;;;0.20;97.30;;;;;;20755043;28;20363;-52
2021/12/20 16:27:48;;;;;;;6.03;3.25;;;0.00;99.30;;;;;;20805174;28;20037;-54
2021/12/20 16:37:52;;;;;;;4.43;2.10;;;-0.20;98.20;;;;;;20803957;28;20072;-50
2021/12/20 16:48:08;;;;;;;5.45;1.55;;;-0.30;97.80;;;;;;20803594;28;20033;-50
2021/12/20 16:58:13;;;;;;;4.25;1.92;;;-0.40;97.00;;;;;;20739173;28;20037;-49
2021/12/20 17:08:20;;;;;;;7.40;2.70;;;-0.50;97.00;;;;;;20721706;28;20097;-50
2021/12/20 17:18:25;;;;;;;6.45;3.17;;;-0.70;99.90;;;;;;20721732;28;20046;-49
2021/12/20 17:28:28;;;;;;;5.72;3.00;;;-0.90;99.80;;;;;;20719586;28;20475;-49
2021/12/20 17:38:30;;;;;;;6.28;3.00;;;-0.90;99.00;;;;;;20743747;28;20041;-51
2021/12/20 17:48:33;;;;;;;6.82;3.40;;;-1.10;99.90;;;;;;20800302;28;20041;-52
2021/12/20 17:58:35;;;;;;;8.07;3.60;;;-1.30;99.90;;;;;;20800175;28;20482;-51
2021/12/20 18:08:39;;;;;;;5.30;2.65;;;-1.40;99.90;;;;;;20808282;28;20041;-50
2021/12/20 18:18:42;;;;;;;7.55;3.60;;;-1.60;99.90;;;;;;20799574;28;20182;-49
2021/12/20 18:28:48;;;;;;;6.97;3.50;;;-1.70;99.90;;;;;;20782928;28;20029;-48
2021/12/20 18:38:51;;;;;;;6.82;3.75;;;-1.80;99.90;;;;;;20813333;28;20041;-49
2021/12/20 18:48:54;;;;;;;7.05;3.72;;;-2.00;99.90;;;;;;20813137;28;20406;-50
2021/12/20 18:58:58;;;;;;;9.15;4.00;;;-2.10;99.90;;;;;;20812029;28;20045;-53
2021/12/20 19:09:04;;;;;;;7.93;3.60;;;-2.40;99.90;;;;;;20795188;28;20482;-50
2021/12/20 19:19:07;;;;;;;10.70;3.83;;;-2.50;99.90;;;;;;20810737;28;20033;-50
2021/12/20 19:29:13;;;;;;;6.93;3.33;;;-2.50;99.90;;;;;;20810178;28;20063;-48
2021/12/20 19:39:16;;;;;;;8.50;3.50;;;-2.40;99.90;;;;;;20795851;28;20112;-49
2021/12/20 19:49:20;;;;;;;7.00;3.20;;;-2.40;99.90;;;;;;20728270;28;20462;-48
2021/12/20 19:59:24;;;;;;;8.65;3.40;;;-2.30;99.90;;;;;;20726102;28;20563;-49
2021/12/20 20:09:34;;;;;;;8.00;3.17;;;-2.20;99.90;;;;;;20724761;28;20099;-49
2021/12/20 20:19:37;;;;;;;7.95;3.60;;;-2.20;99.90;;;;;;20788560;28;20352;-48
2021/12/20 20:29:40;;;;;;;9.23;3.25;;;-2.30;99.90;;;;;;20805005;28;20033;-52
2021/12/20 20:39:42;;;;;;;7.93;3.05;;;-2.40;99.90;;;;;;20804119;28;20049;-52
2021/12/20 20:49:45;;;;;;;6.65;2.80;;;-2.20;99.90;;;;;;20803497;28;20091;-48
2021/12/20 20:59:48;;;;;;;7.75;2.50;;;-2.10;99.90;;;;;;20661610;28;20097;-49
2021/12/20 21:09:51;;;;;;;4.55;2.22;;;-2.00;99.90;;;;;;20657062;28;20498;-49
2021/12/20 21:19:54;;;;;;;5.05;2.47;;;-1.90;99.90;;;;;;20655491;28;20108;-50
2021/12/20 21:29:57;;;;;;;4.72;2.17;;;-1.80;99.90;;;;;;20639956;28;20070;-50
2021/12/20 21:40:01;;;;;;;5.25;2.20;;;-1.80;99.90;;;;;;20727112;28;20049;-48
2021/12/20 21:50:04;;;;;;;5.20;2.78;;;-1.60;99.90;;;;;;20799187;28;20041;-52
2021/12/20 22:00:08;;;;;;;3.70;2.08;;;-1.50;99.90;;;;;;20800653;28;20084;-50
2021/12/20 22:10:13;;;;;;;5.47;2.70;;;-1.50;99.90;;;;;;20799677;28;20045;-50
2021/12/20 22:20:15;;;;;;;5.75;2.65;;;-1.60;99.90;;;;;;20783064;28;20057;-53
2021/12/20 22:30:21;;;;;;;5.97;2.47;;;-1.60;99.90;;;;;;20799429;28;20376;-48
2021/12/20 22:40:24;;;;;;;4.57;2.40;;;-1.50;99.90;;;;;;20798240;28;20103;-49
2021/12/20 22:50:26;;;;;;;5.15;2.90;;;-1.60;99.90;;;;;;20799107;28;20041;-50
2021/12/20 23:00:29;;;;;;;6.15;2.50;;;-1.70;99.90;;;;;;20812052;28;20067;-51
2021/12/20 23:10:32;;;;;;;5.28;2.10;;;-1.50;99.90;;;;;;20811221;28;20033;-49
2021/12/20 23:20:35;;;;;;;4.47;2.10;;;-1.70;99.90;;;;;;20810768;28;20096;-48
2021/12/20 23:30:38;;;;;;;5.47;2.03;;;-1.90;99.90;;;;;;20809945;28;20030;-51
2021/12/20 23:40:46;;;;;;;6.38;2.30;;;-2.20;99.90;;;;;;20783983;28;20553;-50
2021/12/20 23:50:50;;;;;;;6.50;2.17;;;-2.40;99.90;;;;;;20711608;28;20348;-48
